Jj Sky — VRJA6 — position and weather

sailwx.info

Track history (hours):
 
Tides and Currents Weather Stations Pressure Air Temp Water Temp Dewpoint Dewpoint Depression Visibility Wind Speed Wind Dir Waves Ship Positions

Jj Sky

Last reported at 2014-Oct-24 19:30 UTC. Time now 2014-Oct-25 09:30 UTC.
Position N 31°15' E 121°58'.

Length 148 m; draft 8.4 m.

Type: Ship. MMSI: 477397500.

Date/timePositionNaut miles runAvg speedWind from/ knotsBaromVisibWave heightAir tempDewpointWater temp
2014-Oct-24 19:30N 31°15' E 121°58'1414.3
2014-Oct-24 18:31N 31°19' E 121°42'2 1.3
2014-Oct-24 17:04N 31°20' E 121°40'0 0.0
2014-Oct-24 11:23N 31°20' E 121°40'0 0.0
2014-Oct-24 10:10N 31°20' E 121°40'0 0.0
2014-Oct-24 07:09N 31°20' E 121°40'2 0.6
2014-Oct-24 03:19N 31°19' E 121°43'  
2014-Oct-17 05:19N 31°18' E 121°46'5 3.9
2014-Oct-17 04:05N 31°20' E 121°40'0 0.0
2014-Oct-17 02:30N 31°20' E 121°40'0 0.1
2014-Oct-17 01:20N 31°20' E 121°40'0 0.0
2014-Oct-16 22:28N 31°20' E 121°40'0 0.1
2014-Oct-16 21:34N 31°20' E 121°40'0 0.0
2014-Oct-16 18:29N 31°20' E 121°40'0 0.0
2014-Oct-16 17:05N 31°20' E 121°40'0 0.1
2014-Oct-16 16:15N 31°20' E 121°40'0 0.0
2014-Oct-16 15:33N 31°20' E 121°40'0 0.3
2014-Oct-16 14:30N 31°20' E 121°41'1 1.0
2014-Oct-16 13:25N 31°21' E 121°41'0 0.1
2014-Oct-16 12:13N 31°21' E 121°41'0 0.1
2014-Oct-16 11:18N 31°21' E 121°41'0 0.0
2014-Oct-16 09:17N 31°21' E 121°41'0 0.1
2014-Oct-16 08:23N 31°21' E 121°41'0 0.0
2014-Oct-16 07:28N 31°21' E 121°41'0 0.0
2014-Oct-16 06:07N 31°21' E 121°41'0 0.2
2014-Oct-16 05:31N 31°21' E 121°41'0 0.0
2014-Oct-16 03:24N 31°21' E 121°41'0 0.1
2014-Oct-16 02:12N 31°21' E 121°41'0 0.0
2014-Oct-16 00:23N 31°21' E 121°41'0 0.0
2014-Oct-15 16:31N 31°21' E 121°41'0 0.0
2014-Oct-15 15:25N 31°21' E 121°41'0 0.0
2014-Oct-15 13:30N 31°21' E 121°41'0 0.0
2014-Oct-15 09:10N 31°21' E 121°41'0 0.0
2014-Oct-15 05:12N 31°21' E 121°41'0 0.0
2014-Oct-15 03:29N 31°21' E 121°41'0 0.0
2014-Oct-15 01:17N 31°21' E 121°41'0 0.1
2014-Oct-15 00:27N 31°21' E 121°41'  
Track history (hours):
 
Tides and Currents Weather Stations Pressure Air Temp Water Temp Dewpoint Dewpoint Depression Visibility Wind Speed Wind Dir Waves Ship Positions

Jj Sky

Last reported at 2014-Oct-24 19:30 UTC. Time now 2014-Oct-25 09:30 UTC.
Position N 31°15' E 121°58'.

Length 148 m; draft 8.4 m.

Type: Ship. MMSI: 477397500.

Date/timePositionNaut miles runAvg speedWind from/ knotsBaromVisibWave heightAir tempDewpointWater temp
2014-Oct-24 19:30N 31°15' E 121°58'1414.3
2014-Oct-24 18:31N 31°19' E 121°42'2 1.3
2014-Oct-24 17:04N 31°20' E 121°40'0 0.0
2014-Oct-24 11:23N 31°20' E 121°40'0 0.0
2014-Oct-24 10:10N 31°20' E 121°40'0 0.0
2014-Oct-24 07:09N 31°20' E 121°40'2 0.6
2014-Oct-24 03:19N 31°19' E 121°43'  
2014-Oct-17 05:19N 31°18' E 121°46'5 3.9
2014-Oct-17 04:05N 31°20' E 121°40'0 0.0
2014-Oct-17 02:30N 31°20' E 121°40'0 0.1
2014-Oct-17 01:20N 31°20' E 121°40'0 0.0
2014-Oct-16 22:28N 31°20' E 121°40'0 0.1
2014-Oct-16 21:34N 31°20' E 121°40'0 0.0
2014-Oct-16 18:29N 31°20' E 121°40'0 0.0
2014-Oct-16 17:05N 31°20' E 121°40'0 0.1
2014-Oct-16 16:15N 31°20' E 121°40'0 0.0
2014-Oct-16 15:33N 31°20' E 121°40'0 0.3
2014-Oct-16 14:30N 31°20' E 121°41'1 1.0
2014-Oct-16 13:25N 31°21' E 121°41'0 0.1
2014-Oct-16 12:13N 31°21' E 121°41'0 0.1
2014-Oct-16 11:18N 31°21' E 121°41'0 0.0
2014-Oct-16 09:17N 31°21' E 121°41'0 0.1
2014-Oct-16 08:23N 31°21' E 121°41'0 0.0
2014-Oct-16 07:28N 31°21' E 121°41'0 0.0
2014-Oct-16 06:07N 31°21' E 121°41'0 0.2
2014-Oct-16 05:31N 31°21' E 121°41'0 0.0
2014-Oct-16 03:24N 31°21' E 121°41'0 0.1
2014-Oct-16 02:12N 31°21' E 121°41'0 0.0
2014-Oct-16 00:23N 31°21' E 121°41'0 0.0
2014-Oct-15 16:31N 31°21' E 121°41'0 0.0
2014-Oct-15 15:25N 31°21' E 121°41'0 0.0
2014-Oct-15 13:30N 31°21' E 121°41'0 0.0
2014-Oct-15 09:10N 31°21' E 121°41'0 0.0
2014-Oct-15 05:12N 31°21' E 121°41'0 0.0
2014-Oct-15 03:29N 31°21' E 121°41'0 0.0
2014-Oct-15 01:17N 31°21' E 121°41'0 0.1
2014-Oct-15 00:27N 31°21' E 121°41'  

Dump ship's entire track history